Time;durP1;ratioP1;P1;durP2;ratioP2;P2;SDS_P1;SDS_P2;PMS_P1;PMS_P2;Temp;Humidity;BMP_temperature;BMP_pressure;BME280_temperature;BME280_humidity;BME280_pressure;Samples;Min_cycle;Max_cycle;Signal;HPM_P1;HPM_P2
2024/04/11 00:01:43;;;;;;;7.13;2.77;;;6.30;79.50;;;;;;6773951;26;20475;-66
2024/04/11 00:04:57;;;;;;;4.20;3.20;;;6.30;80.00;;;;;;6775886;26;20464;-65
2024/04/11 00:07:59;;;;;;;3.40;2.40;;;6.30;79.90;;;;;;6776109;26;20465;-65
2024/04/11 00:11:01;;;;;;;5.00;3.30;;;6.30;80.00;;;;;;6776111;26;20569;-65
2024/04/11 00:14:03;;;;;;;3.77;3.07;;;6.30;80.10;;;;;;6775958;26;20463;-66
2024/04/11 00:17:05;;;;;;;5.13;2.90;;;6.30;80.00;;;;;;6775760;26;20499;-66
2024/04/11 00:20:07;;;;;;;6.17;2.70;;;6.30;80.00;;;;;;6775932;26;20539;-66
2024/04/11 00:23:09;;;;;;;12.67;4.90;;;6.20;79.60;;;;;;6775162;26;20493;-66
2024/04/11 00:26:11;;;;;;;10.83;5.93;;;6.10;80.20;;;;;;6775746;26;20455;-65
2024/04/11 00:29:13;;;;;;;15.83;7.80;;;6.00;80.60;;;;;;6775687;26;20459;-66
2024/04/11 00:32:15;;;;;;;7.70;4.80;;;5.90;80.80;;;;;;6775219;26;20467;-66
2024/04/11 00:35:18;;;;;;;7.47;4.47;;;5.70;81.60;;;;;;6775361;26;20492;-65
2024/04/11 00:38:21;;;;;;;10.73;3.97;;;5.70;81.60;;;;;;6775053;26;20459;-66
2024/04/11 00:41:23;;;;;;;5.50;2.97;;;5.60;81.80;;;;;;6775481;26;20444;-66
2024/04/11 00:44:29;;;;;;;6.53;3.00;;;5.60;82.00;;;;;;6775404;26;20459;-65
2024/04/11 00:47:33;;;;;;;8.83;3.90;;;5.60;82.00;;;;;;6776209;26;20519;-65
2024/04/11 00:50:35;;;;;;;3.27;2.97;;;5.60;81.80;;;;;;6775547;26;20463;-66
2024/04/11 00:53:37;;;;;;;4.13;2.63;;;5.60;82.00;;;;;;6776330;26;20447;-65
2024/04/11 00:56:40;;;;;;;4.33;3.40;;;5.60;81.90;;;;;;6782990;26;20491;-65
2024/04/11 00:59:43;;;;;;;4.67;2.60;;;5.50;81.90;;;;;;6786086;26;20701;-64
2024/04/11 01:02:49;;;;;;;4.30;2.70;;;5.50;82.40;;;;;;6790604;26;20444;-65
2024/04/11 01:05:52;;;;;;;6.00;3.20;;;5.60;82.10;;;;;;6785916;26;20455;-65
2024/04/11 01:08:54;;;;;;;7.57;2.70;;;5.60;81.90;;;;;;6749119;26;20512;-64
2024/04/11 01:11:56;;;;;;;3.77;2.77;;;5.70;81.20;;;;;;6780696;26;20530;-65
2024/04/11 01:14:58;;;;;;;4.07;3.20;;;5.70;80.70;;;;;;6782669;26;21007;-65
2024/04/11 01:18:01;;;;;;;4.83;2.70;;;5.60;80.80;;;;;;6775979;26;20455;-65
2024/04/11 01:21:04;;;;;;;4.30;3.00;;;5.50;81.50;;;;;;6776353;26;20459;-64
2024/04/11 01:24:07;;;;;;;4.80;3.53;;;5.30;82.30;;;;;;6780484;26;20499;-64
2024/04/11 01:27:12;;;;;;;4.33;2.77;;;5.20;82.80;;;;;;6788218;26;20515;-65
2024/04/11 01:30:14;;;;;;;9.03;3.10;;;5.10;83.00;;;;;;6788572;26;20451;-66
2024/04/11 01:33:16;;;;;;;9.63;3.70;;;5.10;83.30;;;;;;6788621;26;20467;-66
2024/04/11 01:36:18;;;;;;;6.83;3.97;;;5.10;83.60;;;;;;6780683;26;20451;-65
2024/04/11 01:39:20;;;;;;;8.40;3.80;;;5.10;83.70;;;;;;6778903;26;21016;-65
2024/04/11 01:42:22;;;;;;;10.17;4.40;;;5.10;83.90;;;;;;6788911;26;20499;-65
2024/04/11 01:45:26;;;;;;;8.53;4.30;;;5.10;84.10;;;;;;6789271;26;20549;-66
2024/04/11 01:48:28;;;;;;;7.90;4.30;;;5.10;83.60;;;;;;6785159;26;20496;-64
2024/04/11 01:51:30;;;;;;;11.03;3.90;;;5.10;83.50;;;;;;6775383;26;20772;-64
2024/04/11 01:54:32;;;;;;;10.00;4.40;;;5.00;83.30;;;;;;6774336;26;20507;-64
2024/04/11 01:57:37;;;;;;;7.67;4.07;;;4.90;84.30;;;;;;6774032;26;20528;-65
2024/04/11 02:00:39;;;;;;;7.87;3.93;;;4.70;84.80;;;;;;6775766;26;20876;-64
2024/04/11 02:03:41;;;;;;;5.70;3.57;;;4.60;85.40;;;;;;6775968;26;20462;-64
2024/04/11 02:06:43;;;;;;;5.60;3.30;;;4.50;86.10;;;;;;6778104;26;20991;-64
2024/04/11 02:09:45;;;;;;;7.97;3.70;;;4.30;86.50;;;;;;6778320;26;20504;-64
2024/04/11 02:12:47;;;;;;;7.80;3.30;;;4.20;86.70;;;;;;6777781;26;20803;-64
2024/04/11 02:15:49;;;;;;;7.87;3.20;;;4.10;87.10;;;;;;6778061;26;20490;-64
2024/04/11 02:18:55;;;;;;;3.53;2.53;;;4.00;87.50;;;;;;6775927;26;20497;-64
2024/04/11 02:21:57;;;;;;;5.50;3.10;;;3.90;87.40;;;;;;6776025;26;20467;-64
2024/04/11 02:24:59;;;;;;;5.70;3.10;;;3.80;88.00;;;;;;6776177;26;20462;-64
2024/04/11 02:28:01;;;;;;;4.33;2.83;;;3.80;88.10;;;;;;6777780;26;20451;-64
2024/04/11 02:31:03;;;;;;;4.50;2.90;;;3.80;88.30;;;;;;6777609;26;20458;-64
2024/04/11 02:34:06;;;;;;;5.60;2.60;;;3.80;87.80;;;;;;6775949;26;20463;-63
2024/04/11 02:37:08;;;;;;;6.20;3.00;;;3.80;87.90;;;;;;6778576;26;20452;-63
2024/04/11 02:40:10;;;;;;;4.43;3.07;;;3.70;88.70;;;;;;6775849;26;20466;-64
2024/04/11 02:43:12;;;;;;;4.63;3.03;;;3.80;88.90;;;;;;6777200;26;20470;-64
2024/04/11 02:46:17;;;;;;;6.77;3.20;;;3.90;88.50;;;;;;6777143;26;20866;-63
2024/04/11 02:49:19;;;;;;;4.77;2.70;;;4.00;88.40;;;;;;6777567;26;20489;-64
2024/04/11 02:52:21;;;;;;;6.37;3.57;;;4.10;88.10;;;;;;6777273;26;20471;-64
2024/04/11 02:55:23;;;;;;;4.50;3.00;;;4.20;87.80;;;;;;6782277;26;20463;-64
2024/04/11 02:58:24;;;;;;;4.97;3.40;;;4.20;87.60;;;;;;6791621;26;20515;-64
2024/04/11 03:01:26;;;;;;;6.13;3.30;;;4.30;87.30;;;;;;6793455;26;20456;-65
2024/04/11 03:04:28;;;;;;;7.73;3.40;;;4.30;86.80;;;;;;6793380;26;20447;-64
2024/04/11 03:07:31;;;;;;;3.70;2.70;;;4.40;86.40;;;;;;6796630;26;20451;-64
2024/04/11 03:10:33;;;;;;;5.93;3.43;;;4.30;85.80;;;;;;6796005;26;20507;-64
2024/04/11 03:13:36;;;;;;;5.90;3.40;;;4.20;85.80;;;;;;6788828;26;20503;-64
2024/04/11 03:16:38;;;;;;;7.90;3.20;;;4.20;86.10;;;;;;6794064;26;20541;-65
2024/04/11 03:19:41;;;;;;;9.17;3.20;;;4.10;86.10;;;;;;6792230;26;20447;-64
2024/04/11 03:22:43;;;;;;;8.67;3.00;;;4.00;86.30;;;;;;6790157;26;20463;-65
2024/04/11 03:25:44;;;;;;;8.97;2.80;;;4.00;86.30;;;;;;6785259;26;20463;-64
2024/04/11 03:28:46;;;;;;;5.33;3.10;;;3.90;85.80;;;;;;6783876;26;20510;-64
2024/04/11 03:31:50;;;;;;;3.43;2.77;;;3.80;86.00;;;;;;6778695;26;20458;-64
2024/04/11 03:34:52;;;;;;;6.50;3.40;;;3.80;86.70;;;;;;6780898;26;20463;-64
2024/04/11 03:37:54;;;;;;;7.37;3.53;;;3.80;86.80;;;;;;6781268;26;20970;-64
2024/04/11 03:41:04;;;;;;;5.20;3.50;;;3.90;87.20;;;;;;6780380;26;20534;-65
2024/04/11 03:44:08;;;;;;;5.50;3.40;;;3.90;87.80;;;;;;6780675;26;20447;-64
2024/04/11 03:47:10;;;;;;;7.30;3.43;;;4.00;87.80;;;;;;6779155;26;20518;-63
2024/04/11 03:50:14;;;;;;;5.73;3.33;;;3.90;87.60;;;;;;6779842;26;20808;-63
2024/04/11 03:53:16;;;;;;;6.33;3.53;;;3.90;88.40;;;;;;6779875;26;20446;-64
2024/04/11 03:56:22;;;;;;;4.60;3.87;;;4.00;88.30;;;;;;6779192;26;20530;-64
2024/04/11 03:59:26;;;;;;;5.30;3.20;;;4.00;88.30;;;;;;6778536;26;20463;-65
2024/04/11 04:02:28;;;;;;;8.10;3.60;;;4.10;88.00;;;;;;6778448;26;20459;-64
2024/04/11 04:05:31;;;;;;;5.43;3.80;;;4.10;87.60;;;;;;6777299;26;20447;-64
2024/04/11 04:08:35;;;;;;;6.00;3.07;;;4.20;87.30;;;;;;6777612;26;20462;-64
2024/04/11 04:11:38;;;;;;;7.30;3.67;;;4.20;86.90;;;;;;6779653;26;20456;-64
2024/04/11 04:14:41;;;;;;;5.03;3.67;;;4.10;85.90;;;;;;6789162;26;20456;-63
2024/04/11 04:17:43;;;;;;;7.83;4.00;;;4.00;86.10;;;;;;6778111;26;20507;-64
2024/04/11 04:20:53;;;;;;;5.87;3.37;;;3.90;87.00;;;;;;6776616;26;20450;-64
2024/04/11 04:23:55;;;;;;;6.53;3.60;;;3.90;87.30;;;;;;6776059;26;20504;-64
2024/04/11 04:26:57;;;;;;;6.37;3.50;;;4.00;87.00;;;;;;6777232;26;20459;-64
2024/04/11 04:29:59;;;;;;;5.63;4.00;;;4.00;87.30;;;;;;6776749;26;20459;-64
2024/04/11 04:33:02;;;;;;;5.73;4.17;;;4.00;87.10;;;;;;6774699;26;20462;-63
2024/04/11 04:36:16;;;;;;;6.70;4.20;;;4.00;86.40;;;;;;6774150;26;20584;-63
2024/04/11 04:39:30;;;;;;;6.30;3.77;;;4.00;86.30;;;;;;6774864;26;20500;-63
2024/04/11 04:42:32;;;;;;;5.00;3.80;;;3.90;86.20;;;;;;6774418;26;20503;-64
2024/04/11 04:45:36;;;;;;;9.20;4.50;;;3.90;86.20;;;;;;6773456;26;20755;-64
2024/04/11 04:48:38;;;;;;;6.60;3.80;;;3.80;86.30;;;;;;6777152;26;20466;-64
2024/04/11 04:51:41;;;;;;;5.93;3.23;;;3.80;86.30;;;;;;6781583;26;20561;-64
2024/04/11 04:54:44;;;;;;;8.53;3.93;;;3.80;86.20;;;;;;6774657;26;20462;-64
2024/04/11 04:57:47;;;;;;;4.07;3.40;;;3.80;86.20;;;;;;6774389;26;20478;-64
2024/04/11 05:00:49;;;;;;;7.60;3.60;;;3.70;86.30;;;;;;6774293;26;20505;-63
2024/04/11 05:03:51;;;;;;;5.57;4.23;;;3.60;86.50;;;;;;6774490;26;20463;-64
2024/04/11 05:06:54;;;;;;;10.03;3.80;;;3.50;86.70;;;;;;6774095;26;20557;-64
2024/04/11 05:09:57;;;;;;;11.47;3.70;;;3.40;87.40;;;;;;6774575;26;20475;-63
2024/04/11 05:12:59;;;;;;;4.70;3.53;;;3.50;87.70;;;;;;6773749;26;20473;-63
2024/04/11 05:16:01;;;;;;;5.50;3.37;;;3.50;87.90;;;;;;6771102;26;20474;-63
2024/04/11 05:19:04;;;;;;;8.63;3.60;;;3.70;87.90;;;;;;6771079;26;20526;-63
2024/04/11 05:22:08;;;;;;;7.40;4.07;;;3.70;87.60;;;;;;6772768;26;20518;-64
2024/04/11 05:25:10;;;;;;;12.67;3.37;;;3.80;87.20;;;;;;6772625;26;20548;-63
2024/04/11 05:28:14;;;;;;;7.57;3.63;;;3.90;86.70;;;;;;6772572;26;20507;-64
2024/04/11 05:31:25;;;;;;;8.70;3.40;;;4.00;86.30;;;;;;6772757;26;20450;-64
2024/04/11 05:34:29;;;;;;;10.50;4.10;;;4.20;86.20;;;;;;6775077;26;20942;-65
2024/04/11 05:37:32;;;;;;;7.93;3.63;;;4.20;85.80;;;;;;6776655;26;20467;-63
2024/04/11 05:40:34;;;;;;;6.90;3.40;;;4.30;85.80;;;;;;6776815;26;20644;-64
2024/04/11 05:43:42;;;;;;;8.17;4.20;;;4.40;86.00;;;;;;6777450;26;20504;-64
2024/04/11 05:46:45;;;;;;;5.10;3.70;;;4.50;86.10;;;;;;6777103;26;20447;-63
2024/04/11 05:49:47;;;;;;;10.43;3.90;;;4.70;86.10;;;;;;6778849;26;20844;-64
2024/04/11 05:52:49;;;;;;;7.00;3.87;;;5.00;85.50;;;;;;6776952;26;20494;-63
2024/04/11 05:55:51;;;;;;;10.17;4.20;;;5.20;84.40;;;;;;6776928;26;20564;-64
2024/04/11 05:58:53;;;;;;;9.03;3.93;;;5.50;84.20;;;;;;6775304;26;20815;-64
2024/04/11 06:01:56;;;;;;;6.73;3.90;;;5.80;82.90;;;;;;6777889;26;20443;-65
2024/04/11 06:04:58;;;;;;;4.97;3.73;;;6.10;80.80;;;;;;6775596;26;20455;-65
2024/04/11 06:08:00;;;;;;;7.77;4.20;;;6.40;80.70;;;;;;6775671;26;20602;-64
2024/04/11 06:11:02;;;;;;;5.50;4.03;;;6.70;78.20;;;;;;6777372;26;20451;-64
2024/04/11 06:14:05;;;;;;;13.97;4.53;;;6.90;77.40;;;;;;6776339;26;20455;-64
2024/04/11 06:17:07;;;;;;;6.67;3.80;;;7.00;76.80;;;;;;6777180;26;20514;-64
2024/04/11 06:20:15;;;;;;;7.63;4.40;;;7.20;76.40;;;;;;6776764;26;20463;-64
2024/04/11 06:23:17;;;;;;;8.97;5.13;;;7.30;75.50;;;;;;6776778;26;20451;-64
2024/04/11 06:26:19;;;;;;;7.47;4.40;;;7.50;75.80;;;;;;6776056;26;20511;-63
2024/04/11 06:29:24;;;;;;;9.63;4.80;;;7.70;76.00;;;;;;6775870;26;21022;-64
2024/04/11 06:32:26;;;;;;;16.10;5.00;;;7.90;75.10;;;;;;6776153;26;20467;-63
2024/04/11 06:35:28;;;;;;;8.67;5.17;;;8.20;73.90;;;;;;6775995;26;20459;-63
2024/04/11 06:38:31;;;;;;;10.50;5.00;;;8.40;73.90;;;;;;6776009;26;20511;-64
2024/04/11 06:41:33;;;;;;;8.60;4.90;;;8.60;74.00;;;;;;6776288;26;20459;-64
2024/04/11 06:44:35;;;;;;;11.03;5.30;;;8.70;73.10;;;;;;6774064;26;20502;-64
2024/04/11 06:47:37;;;;;;;9.40;5.20;;;8.90;72.90;;;;;;6774629;26;20459;-65
2024/04/11 06:50:50;;;;;;;7.70;5.03;;;9.10;72.70;;;;;;6780902;26;20496;-65
2024/04/11 06:53:52;;;;;;;7.67;5.77;;;9.30;71.60;;;;;;6776164;26;20909;-64
2024/04/11 06:56:57;;;;;;;8.87;5.50;;;9.40;71.60;;;;;;6778346;26;20467;-65
2024/04/11 06:59:59;;;;;;;7.97;5.33;;;9.40;71.70;;;;;;6778037;26;20639;-66
2024/04/11 07:03:13;;;;;;;14.20;5.93;;;9.60;71.70;;;;;;6776361;26;20552;-65
2024/04/11 07:06:21;;;;;;;7.93;4.80;;;9.80;71.40;;;;;;6775892;26;20555;-67
2024/04/11 07:09:37;;;;;;;12.47;6.73;;;10.00;70.60;;;;;;6776315;26;20562;-64
2024/04/11 07:12:41;;;;;;;10.10;6.70;;;10.20;70.80;;;;;;6775758;26;20456;-65
2024/04/11 07:15:43;;;;;;;10.13;7.10;;;10.30;70.20;;;;;;6775769;26;20504;-65
2024/04/11 07:18:48;;;;;;;8.33;6.83;;;10.50;69.50;;;;;;6775276;26;20507;-66
2024/04/11 07:21:52;;;;;;;11.87;7.37;;;10.60;69.50;;;;;;6775236;26;20491;-66
2024/04/11 07:24:54;;;;;;;18.63;6.00;;;10.70;69.40;;;;;;6773612;26;20513;-65
2024/04/11 07:27:56;;;;;;;12.37;7.27;;;10.70;68.90;;;;;;6773282;26;20455;-64
2024/04/11 07:30:58;;;;;;;11.60;6.80;;;10.80;69.10;;;;;;6775057;26;20451;-65
2024/04/11 07:34:02;;;;;;;16.40;6.80;;;10.90;69.20;;;;;;6775990;26;20459;-66
2024/04/11 07:37:06;;;;;;;8.07;6.10;;;11.10;68.50;;;;;;6775037;26;20459;-66
2024/04/11 07:40:27;;;;;;;10.97;7.00;;;11.10;68.60;;;;;;6774780;26;20456;-65
2024/04/11 07:43:31;;;;;;;11.47;7.07;;;11.10;68.60;;;;;;6775071;26;20467;-65
2024/04/11 07:46:33;;;;;;;11.03;7.83;;;11.10;69.20;;;;;;6775070;26;20814;-66
2024/04/11 07:49:47;;;;;;;12.00;7.30;;;11.10;69.50;;;;;;6775707;26;20520;-65
2024/04/11 07:52:50;;;;;;;14.20;7.57;;;11.00;69.80;;;;;;6774141;26;20463;-65
2024/04/11 07:55:54;;;;;;;12.70;6.70;;;11.00;70.60;;;;;;6774398;26;20479;-66
2024/04/11 07:58:56;;;;;;;9.93;6.60;;;11.10;70.60;;;;;;6773980;26;20459;-65
2024/04/11 08:01:58;;;;;;;9.03;6.70;;;11.10;70.50;;;;;;6773197;26;20460;-65
2024/04/11 08:05:00;;;;;;;16.70;6.73;;;11.20;70.80;;;;;;6774857;26;20938;-64
2024/04/11 08:08:05;;;;;;;12.67;7.50;;;11.20;70.30;;;;;;6774657;26;20451;-65
2024/04/11 08:11:10;;;;;;;11.80;7.63;;;11.30;70.10;;;;;;6774822;26;20562;-65
2024/04/11 08:14:12;;;;;;;10.00;7.27;;;11.40;70.10;;;;;;6774539;26;20780;-65
2024/04/11 08:17:15;;;;;;;10.77;7.10;;;11.50;69.70;;;;;;6774636;26;20507;-65
2024/04/11 08:20:19;;;;;;;14.00;6.23;;;11.60;68.50;;;;;;6773850;26;20990;-65
2024/04/11 08:23:25;;;;;;;10.57;6.40;;;11.80;68.20;;;;;;6774113;26;20467;-64
2024/04/11 08:26:29;;;;;;;14.10;6.70;;;12.10;66.00;;;;;;6774876;26;20558;-66
2024/04/11 08:29:31;;;;;;;13.63;6.10;;;12.20;65.90;;;;;;6774711;26;20459;-66
2024/04/11 08:32:33;;;;;;;8.43;6.20;;;12.50;65.30;;;;;;6774428;26;20550;-66
2024/04/11 08:35:35;;;;;;;6.90;5.30;;;12.80;64.40;;;;;;6775216;26;20503;-66
2024/04/11 08:38:43;;;;;;;10.93;6.87;;;13.20;61.90;;;;;;6774764;26;20451;-66
2024/04/11 08:41:46;;;;;;;12.87;6.87;;;13.30;61.10;;;;;;6773125;26;20436;-65
2024/04/11 08:44:51;;;;;;;8.27;6.70;;;13.50;62.20;;;;;;6774466;26;20504;-66
2024/04/11 08:47:53;;;;;;;7.73;6.87;;;13.80;60.50;;;;;;6772393;26;20794;-66
2024/04/11 08:51:04;;;;;;;13.67;6.90;;;14.00;60.10;;;;;;6773697;26;20537;-66
2024/04/11 08:54:09;;;;;;;11.60;7.07;;;14.20;58.40;;;;;;6774070;26;20452;-66
2024/04/11 08:57:12;;;;;;;10.73;7.90;;;14.30;59.20;;;;;;6771932;26;20475;-66
2024/04/11 09:00:21;;;;;;;10.10;6.40;;;14.50;59.10;;;;;;6773163;26;20546;-66
2024/04/11 09:03:26;;;;;;;9.70;6.47;;;14.70;57.60;;;;;;6774017;26;20467;-65
2024/04/11 09:06:30;;;;;;;10.17;6.40;;;15.00;58.20;;;;;;6772902;26;20515;-66
2024/04/11 09:09:32;;;;;;;7.33;5.47;;;15.20;55.40;;;;;;6772430;26;20440;-66
2024/04/11 09:12:34;;;;;;;8.57;6.30;;;15.40;54.20;;;;;;6773266;26;20993;-67
2024/04/11 09:15:36;;;;;;;11.73;6.80;;;15.60;54.40;;;;;;6773179;26;20527;-68
2024/04/11 09:18:38;;;;;;;9.53;6.10;;;15.80;54.40;;;;;;6770700;26;20479;-67
2024/04/11 09:21:44;;;;;;;11.80;5.93;;;15.90;55.10;;;;;;6771902;26;20455;-67
2024/04/11 09:24:47;;;;;;;9.90;5.70;;;16.20;53.30;;;;;;6772599;26;20507;-67
2024/04/11 09:27:58;;;;;;;6.43;4.80;;;16.40;50.10;;;;;;6772371;26;20463;-66
2024/04/11 09:31:03;;;;;;;8.30;5.40;;;16.40;51.40;;;;;;6772726;26;20931;-66
2024/04/11 09:34:14;;;;;;;5.30;4.80;;;16.50;50.40;;;;;;6770686;26;20506;-66
2024/04/11 09:37:23;;;;;;;9.40;4.70;;;16.70;50.30;;;;;;6772320;26;20451;-67
2024/04/11 09:40:33;;;;;;;8.73;4.50;;;16.80;48.10;;;;;;6771614;26;20583;-66
2024/04/11 09:43:40;;;;;;;5.13;4.13;;;16.90;48.30;;;;;;6771422;26;20499;-68
2024/04/11 09:46:44;;;;;;;11.03;4.60;;;17.20;47.10;;;;;;6772022;26;20456;-66
2024/04/11 09:49:59;;;;;;;6.10;5.03;;;17.40;47.20;;;;;;6770492;26;20562;-65
2024/04/11 09:53:04;;;;;;;4.97;4.07;;;17.60;46.00;;;;;;6775806;26;20508;-67
2024/04/11 09:56:09;;;;;;;6.90;4.30;;;17.60;45.60;;;;;;6770347;26;20491;-67
2024/04/11 09:59:12;;;;;;;5.93;4.03;;;17.80;44.80;;;;;;6772230;26;20460;-67
2024/04/11 10:02:16;;;;;;;7.07;3.93;;;17.90;44.40;;;;;;6771437;26;20484;-65
2024/04/11 10:05:23;;;;;;;7.10;3.70;;;18.30;43.50;;;;;;6772053;26;20778;-66
2024/04/11 10:08:33;;;;;;;4.53;3.27;;;18.50;42.50;;;;;;6772121;26;20955;-68
2024/04/11 10:11:35;;;;;;;4.53;3.53;;;18.50;41.20;;;;;;6772155;26;20783;-66
2024/04/11 10:14:40;;;;;;;6.13;3.83;;;18.50;41.90;;;;;;6771790;26;20866;-66
2024/04/11 10:17:42;;;;;;;4.30;3.20;;;18.70;41.30;;;;;;6771839;26;20603;-66
2024/04/11 10:21:02;;;;;;;7.23;4.00;;;18.80;41.00;;;;;;6772385;26;20895;-66
2024/04/11 10:24:31;;;;;;;4.03;3.30;;;18.80;41.00;;;;;;6776492;26;20495;-65
2024/04/11 10:27:37;;;;;;;3.30;3.00;;;18.90;40.00;;;;;;6775511;26;20522;-66
2024/04/11 10:30:42;;;;;;;7.27;4.03;;;18.60;40.10;;;;;;6774972;26;20521;-65
2024/04/11 10:33:58;;;;;;;5.73;3.30;;;18.70;40.50;;;;;;6776983;26;20719;-66
2024/04/11 10:37:02;;;;;;;5.67;3.50;;;18.80;40.60;;;;;;6777912;26;20967;-65
2024/04/11 10:40:09;;;;;;;3.43;3.10;;;18.90;39.70;;;;;;6781222;26;20680;-68
2024/04/11 10:43:24;;;;;;;4.30;3.57;;;18.70;37.60;;;;;;6788736;26;20520;-66
2024/04/11 10:46:26;;;;;;;9.67;3.37;;;18.60;39.20;;;;;;6789397;26;20562;-67
2024/04/11 10:49:28;;;;;;;5.03;3.40;;;18.70;39.70;;;;;;6789339;26;20507;-66
2024/04/11 10:52:32;;;;;;;6.33;3.57;;;18.60;40.20;;;;;;6788747;26;20455;-68
2024/04/11 10:55:37;;;;;;;4.83;3.90;;;18.30;41.50;;;;;;6784216;26;20563;-66
2024/04/11 10:58:41;;;;;;;4.80;3.70;;;18.50;41.50;;;;;;6784052;26;20873;-67
2024/04/11 11:01:47;;;;;;;5.40;3.30;;;18.40;42.20;;;;;;6780998;26;20463;-66
2024/04/11 11:05:06;;;;;;;8.03;3.97;;;18.40;42.20;;;;;;6778176;26;20504;-67
2024/04/11 11:08:10;;;;;;;5.80;3.53;;;18.50;41.20;;;;;;6774632;26;20452;-67
2024/04/11 11:11:18;;;;;;;6.03;3.57;;;18.60;41.70;;;;;;6787730;26;20460;-67
2024/04/11 11:14:24;;;;;;;5.37;3.80;;;18.80;42.20;;;;;;6778437;26;20460;-67
2024/04/11 11:17:27;;;;;;;4.23;3.83;;;18.90;40.50;;;;;;6776774;26;20537;-67
2024/04/11 11:20:30;;;;;;;10.07;4.30;;;18.80;41.20;;;;;;6774365;26;20260;-67
2024/04/11 11:23:34;;;;;;;9.40;4.00;;;18.80;40.60;;;;;;6774848;26;20253;-68
2024/04/11 11:26:43;;;;;;;5.70;3.97;;;18.90;40.20;;;;;;6774859;26;20977;-66
2024/04/11 11:29:48;;;;;;;7.60;4.07;;;19.10;40.20;;;;;;6774562;26;20257;-67
2024/04/11 11:32:50;;;;;;;5.37;3.80;;;19.30;40.80;;;;;;6774083;26;20230;-65
2024/04/11 11:35:52;;;;;;;6.47;4.03;;;19.50;40.00;;;;;;6776411;26;20275;-66
2024/04/11 11:38:57;;;;;;;5.47;3.80;;;19.80;39.40;;;;;;6774692;26;20562;-65
2024/04/11 11:42:08;;;;;;;5.63;3.90;;;20.10;39.20;;;;;;6774383;26;20277;-67
2024/04/11 11:45:16;;;;;;;5.40;3.57;;;20.10;39.60;;;;;;6774801;26;20289;-67
2024/04/11 11:48:27;;;;;;;4.30;3.50;;;20.30;39.50;;;;;;6774354;26;20580;-67
2024/04/11 11:51:34;;;;;;;7.63;4.37;;;20.50;38.70;;;;;;6774548;26;20528;-67
2024/04/11 11:54:41;;;;;;;7.17;3.73;;;20.60;38.20;;;;;;6775104;26;20253;-66
2024/04/11 11:57:56;;;;;;;4.43;3.77;;;20.60;38.80;;;;;;6774724;26;20242;-66
2024/04/11 12:01:19;;;;;;;5.80;3.40;;;20.80;38.70;;;;;;6772912;26;20551;-67
2024/04/11 12:04:22;;;;;;;6.60;3.47;;;20.10;38.80;;;;;;6774636;26;20226;-66
2024/04/11 12:07:24;;;;;;;4.37;3.30;;;20.30;39.30;;;;;;6774369;26;20226;-66
2024/04/11 12:14:02;;;;;;;8.17;3.70;;;20.30;40.10;;;;;;6774052;26;20530;-67
2024/04/11 12:17:05;;;;;;;10.93;4.30;;;20.30;39.50;;;;;;6784882;26;20320;-66
2024/04/11 12:20:07;;;;;;;8.33;3.40;;;20.40;39.10;;;;;;6791481;26;20661;-67
2024/04/11 12:23:10;;;;;;;5.37;3.70;;;20.50;39.40;;;;;;6790187;26;20226;-67
2024/04/11 12:26:12;;;;;;;5.63;3.90;;;20.50;40.10;;;;;;6775269;26;20238;-67
2024/04/11 12:29:14;;;;;;;7.73;4.00;;;20.60;38.80;;;;;;6775157;26;20575;-68
2024/04/11 12:32:18;;;;;;;8.50;4.05;;;20.60;39.60;;;;;;6771685;26;20794;-67
2024/04/11 12:35:20;;;;;;;7.00;4.10;;;20.80;38.70;;;;;;6773619;26;20270;-68
2024/04/11 12:38:24;;;;;;;8.27;4.83;;;20.60;39.10;;;;;;6773638;26;20238;-66
2024/04/11 12:41:26;;;;;;;7.60;3.90;;;20.40;38.90;;;;;;6773794;26;20231;-67
2024/04/11 12:44:31;;;;;;;4.67;4.00;;;20.20;38.90;;;;;;6777509;26;20233;-68
2024/04/11 12:51:11;;;;;;;10.13;4.00;;;20.10;39.50;;;;;;6772368;26;20573;-67
2024/04/11 12:54:15;;;;;;;4.63;3.90;;;20.10;39.40;;;;;;6773817;26;20576;-66
2024/04/11 12:57:18;;;;;;;8.17;4.10;;;20.00;40.10;;;;;;6773474;26;20320;-66
2024/04/11 13:00:35;;;;;;;3.87;3.47;;;20.10;41.30;;;;;;6772985;26;20666;-66
2024/04/11 13:06:48;;;;;;;6.33;3.77;;;19.80;39.20;;;;;;6773906;26;20226;-68
2024/04/11 13:09:54;;;;;;;7.13;3.60;;;19.90;40.20;;;;;;6773474;26;20291;-67
2024/04/11 13:12:58;;;;;;;7.50;4.30;;;20.00;40.40;;;;;;6773261;26;20238;-68
2024/04/11 13:16:09;;;;;;;11.70;3.70;;;20.00;39.70;;;;;;6772564;26;20230;-68
2024/04/11 13:19:18;;;;;;;6.40;3.43;;;19.80;40.20;;;;;;6772353;26;20459;-67
2024/04/11 13:22:20;;;;;;;13.13;4.20;;;19.70;40.00;;;;;;6772467;26;20226;-67
2024/04/11 13:25:26;;;;;;;8.67;3.57;;;19.70;40.00;;;;;;6772575;26;20271;-67
2024/04/11 13:28:31;;;;;;;10.97;4.17;;;19.70;39.90;;;;;;6772413;26;20229;-67
2024/04/11 13:31:34;;;;;;;7.07;3.60;;;19.80;40.50;;;;;;6772111;26;20238;-68
2024/04/11 13:34:39;;;;;;;3.67;3.43;;;19.80;40.70;;;;;;6772459;26;20307;-68
2024/04/11 13:37:47;;;;;;;4.50;3.30;;;19.90;40.80;;;;;;6772280;26;20291;-67
2024/04/11 13:44:16;;;;;;;3.63;3.33;;;20.20;39.80;;;;;;6769889;26;20743;-67
2024/04/11 13:47:22;;;;;;;8.40;3.83;;;20.30;39.80;;;;;;6772005;26;20226;-67
2024/04/11 13:50:43;;;;;;;9.63;4.30;;;20.30;39.70;;;;;;6771483;26;20696;-68
2024/04/11 13:53:54;;;;;;;6.70;3.70;;;20.30;39.50;;;;;;6771827;26;20230;-67
2024/04/11 13:57:09;;;;;;;4.03;3.13;;;19.90;40.20;;;;;;6785046;26;20266;-67
2024/04/11 14:00:13;;;;;;;5.90;3.20;;;19.60;40.60;;;;;;6787061;26;20287;-67
2024/04/11 14:03:24;;;;;;;7.30;3.87;;;19.50;40.70;;;;;;6787361;26;20238;-67
2024/04/11 14:06:39;;;;;;;6.47;3.77;;;19.50;41.70;;;;;;6789202;26;20226;-68
2024/04/11 14:09:41;;;;;;;9.73;4.37;;;19.70;40.20;;;;;;6788859;26;20636;-66
2024/04/11 14:12:44;;;;;;;4.07;2.80;;;19.80;39.60;;;;;;6786173;26;20311;-67
2024/04/11 14:15:46;;;;;;;3.90;3.50;;;20.10;38.90;;;;;;6785505;26;20226;-67
2024/04/11 14:18:47;;;;;;;7.23;3.13;;;20.10;39.40;;;;;;6781833;26;20218;-67
2024/04/11 14:22:08;;;;;;;3.27;2.97;;;20.20;39.50;;;;;;6781529;26;20222;-66
2024/04/11 14:28:23;;;;;;;4.53;3.43;;;20.30;39.60;;;;;;6779673;26;20253;-67
2024/04/11 14:31:31;;;;;;;4.90;3.57;;;20.10;39.20;;;;;;6775737;26;20226;-67
2024/04/11 14:38:03;;;;;;;5.33;3.63;;;19.90;40.20;;;;;;6775718;26;20261;-67
2024/04/11 14:41:05;;;;;;;4.10;2.97;;;19.90;39.70;;;;;;6774727;26;20226;-66
2024/04/11 14:44:08;;;;;;;7.03;3.30;;;19.70;39.00;;;;;;6774304;26;20234;-66
2024/04/11 14:47:15;;;;;;;3.90;3.20;;;19.60;39.10;;;;;;6782623;26;20218;-66
2024/04/11 14:50:20;;;;;;;5.60;3.23;;;19.50;39.00;;;;;;6782220;26;20252;-67
2024/04/11 14:53:24;;;;;;;5.10;3.10;;;19.30;39.20;;;;;;6779075;26;20297;-66
2024/04/11 14:56:38;;;;;;;7.47;3.20;;;19.30;40.40;;;;;;6784054;26;20238;-66
2024/04/11 14:59:46;;;;;;;4.83;3.17;;;19.50;39.70;;;;;;6785726;26;20467;-65
2024/04/11 15:02:51;;;;;;;6.00;3.43;;;19.70;39.00;;;;;;6786142;26;20242;-65
2024/04/11 15:05:53;;;;;;;4.67;3.50;;;19.90;39.30;;;;;;6778389;26;20245;-67
2024/04/11 15:08:59;;;;;;;3.60;2.80;;;19.80;38.10;;;;;;6777377;26;20238;-66
2024/04/11 15:12:09;;;;;;;3.83;2.47;;;19.70;38.50;;;;;;6782916;26;20272;-65
2024/04/11 15:15:14;;;;;;;3.13;2.90;;;19.90;38.50;;;;;;6778655;26;20367;-65
2024/04/11 15:18:16;;;;;;;2.93;2.40;;;19.90;39.30;;;;;;6775626;26;20222;-66
2024/04/11 15:21:29;;;;;;;2.87;2.60;;;19.90;39.90;;;;;;6773231;26;20702;-66
2024/04/11 15:24:34;;;;;;;4.03;2.50;;;19.80;39.60;;;;;;6774497;26;20315;-66
2024/04/11 15:27:49;;;;;;;3.00;2.80;;;20.00;38.10;;;;;;6774862;26;20252;-67
2024/04/11 15:33:57;;;;;;;3.20;2.90;;;20.40;38.80;;;;;;6775987;26;20230;-65
2024/04/11 15:40:23;;;;;;;4.43;3.03;;;20.40;37.40;;;;;;6774371;26;20230;-65
2024/04/11 15:43:28;;;;;;;4.20;2.53;;;20.40;37.60;;;;;;6775137;26;20342;-65
2024/04/11 15:46:39;;;;;;;3.40;2.80;;;20.50;37.40;;;;;;6779369;26;20230;-66
2024/04/11 15:49:42;;;;;;;4.70;2.90;;;20.50;37.60;;;;;;6777823;26;20309;-66
2024/04/11 15:52:45;;;;;;;4.03;2.57;;;20.50;36.80;;;;;;6773774;26;20246;-66
2024/04/11 15:55:50;;;;;;;3.03;2.50;;;20.40;37.80;;;;;;6774978;26;20234;-66
2024/04/11 15:58:55;;;;;;;8.13;2.67;;;20.40;37.80;;;;;;6774484;26;20273;-67
2024/04/11 16:01:57;;;;;;;4.53;3.07;;;20.50;37.00;;;;;;6774866;26;20256;-67
2024/04/11 16:04:59;;;;;;;4.20;2.90;;;20.60;39.00;;;;;;6774271;26;20312;-67
2024/04/11 16:08:09;;;;;;;5.70;3.10;;;20.80;38.10;;;;;;6774722;26;20222;-67
2024/04/11 16:11:14;;;;;;;3.50;2.60;;;21.00;36.30;;;;;;6773737;26;20278;-68
2024/04/11 16:14:17;;;;;;;4.13;2.80;;;21.20;36.90;;;;;;6774902;26;20513;-67
2024/04/11 16:17:25;;;;;;;5.30;3.17;;;21.50;37.00;;;;;;6775282;26;20612;-67
2024/04/11 16:20:31;;;;;;;7.60;2.80;;;21.60;36.30;;;;;;6780512;26;20312;-67
2024/04/11 16:23:34;;;;;;;4.30;2.80;;;21.60;36.70;;;;;;6779197;26;20264;-67
2024/04/11 16:26:39;;;;;;;4.23;2.73;;;21.40;36.80;;;;;;6775144;26;20319;-68
2024/04/11 16:29:44;;;;;;;3.10;2.80;;;21.20;37.10;;;;;;6775690;26;20264;-67
2024/04/11 16:32:48;;;;;;;3.40;3.10;;;21.00;36.90;;;;;;6778096;26;20265;-67